Time;durP1;ratioP1;P1;durP2;ratioP2;P2;SDS_P1;SDS_P2;PMS_P1;PMS_P2;Temp;Humidity;BMP_temperature;BMP_pressure;BME280_temperature;BME280_humidity;BME280_pressure;Samples;Min_cycle;Max_cycle;Signal;HPM_P1;HPM_P2
2023/03/08 00:00:10;;;;;;;9.60;5.33;;;;;;;12.23;50.19;93800.22;4989923;28;20573;-48
2023/03/08 00:02:37;;;;;;;6.97;5.30;;;;;;;12.22;50.25;93806.31;4989719;28;20212;-50
2023/03/08 00:05:06;;;;;;;6.60;5.13;;;;;;;12.24;50.58;93804.38;4989315;28;20193;-50
2023/03/08 00:07:33;;;;;;;8.57;5.63;;;;;;;12.22;50.45;93816.59;4989733;28;20633;-52
2023/03/08 00:10:00;;;;;;;6.53;5.30;;;;;;;12.20;50.47;93803.13;4988687;28;20225;-46
2023/03/08 00:12:26;;;;;;;7.53;5.17;;;;;;;12.18;50.49;93802.50;4989402;28;20193;-47
2023/03/08 00:14:53;;;;;;;9.13;5.67;;;;;;;12.18;50.52;93810.19;4989090;28;20634;-51
2023/03/08 00:17:20;;;;;;;7.77;5.20;;;;;;;12.17;50.29;93805.22;4993216;28;20189;-48
2023/03/08 00:19:47;;;;;;;8.37;5.53;;;;;;;12.16;50.57;93804.44;4993094;28;20208;-47
2023/03/08 00:22:15;;;;;;;7.30;5.47;;;;;;;12.09;50.40;93795.00;4991542;28;20192;-52
2023/03/08 00:24:42;;;;;;;10.10;6.13;;;;;;;12.08;50.56;93819.84;4992691;28;20197;-46
2023/03/08 00:27:08;;;;;;;9.70;6.03;;;;;;;12.13;50.59;93821.91;4993047;28;20260;-46
2023/03/08 00:29:35;;;;;;;5.73;4.57;;;;;;;12.09;50.61;93810.38;4992800;28;20212;-46
2023/03/08 00:32:02;;;;;;;6.67;5.07;;;;;;;12.09;50.58;93818.06;4993034;28;20193;-49
2023/03/08 00:34:29;;;;;;;6.93;5.33;;;;;;;12.07;50.78;93809.78;4992254;28;20201;-46
2023/03/08 00:36:56;;;;;;;6.90;5.33;;;;;;;12.04;50.85;93805.78;4992887;28;20195;-46
2023/03/08 00:39:24;;;;;;;8.37;5.13;;;;;;;12.03;50.94;93817.00;4992634;28;20244;-47
2023/03/08 00:41:50;;;;;;;8.07;5.07;;;;;;;12.01;50.98;93798.44;4992939;28;20192;-49
2023/03/08 00:44:17;;;;;;;7.97;5.27;;;;;;;12.00;50.95;93801.94;4992740;28;20201;-51
2023/03/08 00:46:44;;;;;;;8.07;5.37;;;;;;;11.98;50.98;93803.88;4992931;28;20201;-47
2023/03/08 00:49:13;;;;;;;7.63;5.43;;;;;;;11.97;51.12;93807.44;4991306;28;20336;-52
2023/03/08 00:51:39;;;;;;;8.90;4.77;;;;;;;11.95;50.98;93799.88;4992300;28;20207;-51
2023/03/08 00:54:06;;;;;;;8.13;5.20;;;;;;;11.93;51.05;93816.41;4992291;28;20192;-48
2023/03/08 00:56:34;;;;;;;8.87;4.73;;;;;;;11.92;51.16;93796.88;4992589;28;20211;-47
2023/03/08 00:59:01;;;;;;;7.40;4.70;;;;;;;11.90;51.10;93811.63;4992531;28;20193;-45
2023/03/08 01:01:28;;;;;;;7.63;4.93;;;;;;;11.85;51.51;93794.19;4992136;28;20920;-50
2023/03/08 01:03:55;;;;;;;6.63;4.60;;;;;;;11.86;51.29;93800.91;4992831;28;20192;-50
2023/03/08 01:06:22;;;;;;;8.30;5.33;;;;;;;11.85;51.41;93816.44;4991838;28;20188;-45
2023/03/08 01:08:48;;;;;;;6.13;4.73;;;;;;;11.85;51.29;93819.00;4992222;28;20201;-46
2023/03/08 01:11:17;;;;;;;6.67;4.93;;;;;;;11.83;51.31;93808.94;4992027;28;20208;-50
2023/03/08 01:13:46;;;;;;;7.17;5.03;;;;;;;11.80;51.45;93811.78;4990873;28;20193;-49
2023/03/08 01:16:17;;;;;;;8.40;4.83;;;;;;;11.78;51.55;93809.38;4991654;28;20185;-48
2023/03/08 01:18:44;;;;;;;7.33;4.87;;;;;;;11.78;51.58;93813.72;4992306;28;20259;-47
2023/03/08 01:21:11;;;;;;;8.47;5.07;;;;;;;11.75;51.50;93808.94;4991768;28;20274;-51
2023/03/08 01:23:38;;;;;;;6.10;4.70;;;;;;;11.73;51.53;93814.22;4991974;28;20661;-47
2023/03/08 01:26:07;;;;;;;7.07;5.10;;;;;;;11.74;51.50;93822.69;4991663;28;20224;-45
2023/03/08 01:28:35;;;;;;;7.83;4.90;;;;;;;11.66;51.56;93807.38;4991586;28;20197;-47
2023/03/08 01:31:05;;;;;;;8.07;5.63;;;;;;;11.70;51.68;93822.25;4991873;28;20251;-50
2023/03/08 01:33:32;;;;;;;8.73;5.23;;;;;;;11.69;51.87;93822.38;4991953;28;20197;-47
2023/03/08 01:35:59;;;;;;;7.63;4.63;;;;;;;11.67;51.70;93824.34;4991690;28;20208;-49
2023/03/08 01:38:26;;;;;;;8.03;5.33;;;;;;;11.66;51.87;93815.06;4989679;28;20182;-47
2023/03/08 01:40:56;;;;;;;8.47;4.60;;;;;;;11.63;51.88;93812.81;4990938;28;20189;-51
2023/03/08 01:43:26;;;;;;;6.50;5.20;;;;;;;11.62;51.95;93808.66;4991283;28;20280;-49
2023/03/08 01:46:25;;;;;;;8.23;5.53;;;;;;;11.60;52.09;93813.13;4992125;28;20186;-50
2023/03/08 01:49:01;;;;;;;6.97;4.57;;;;;;;11.56;51.97;93815.22;4893566;29;20244;-49
2023/03/08 01:51:35;;;;;;;5.77;4.80;;;;;;;11.53;51.97;93816.38;4893005;29;20203;-50
2023/03/08 01:54:07;;;;;;;5.90;4.70;;;;;;;11.53;52.10;93825.81;4893187;29;20282;-48
2023/03/08 01:56:35;;;;;;;8.60;5.97;;;;;;;11.49;52.20;93822.78;4893460;29;20207;-51
2023/03/08 01:59:03;;;;;;;5.53;4.57;;;;;;;11.48;52.27;93826.28;4893511;29;20196;-47
2023/03/08 02:01:33;;;;;;;8.00;4.90;;;;;;;11.46;52.30;93822.31;4895615;29;20202;-45
2023/03/08 02:04:00;;;;;;;8.13;5.67;;;;;;;11.17;52.48;93771.66;4912183;29;20275;-46
2023/03/08 02:06:28;;;;;;;7.47;5.10;;;;;;;11.41;52.23;93807.44;4911080;29;20203;-50
2023/03/08 02:08:56;;;;;;;7.50;5.10;;;;;;;11.40;52.33;93816.09;4911978;29;20199;-53
2023/03/08 02:11:24;;;;;;;6.93;4.90;;;;;;;11.36;52.47;93812.25;4912149;29;20188;-49
2023/03/08 02:13:52;;;;;;;6.37;4.87;;;;;;;11.34;52.51;93819.28;4911820;29;20203;-47
2023/03/08 02:16:21;;;;;;;6.97;4.77;;;;;;;11.35;52.45;93820.88;4911983;29;20196;-49
2023/03/08 02:18:57;;;;;;;7.10;5.00;;;;;;;11.34;52.63;93816.72;4911821;29;20275;-55
2023/03/08 02:21:25;;;;;;;8.47;5.87;;;;;;;11.29;52.71;93821.56;4911784;29;20219;-46
2023/03/08 02:23:53;;;;;;;10.33;5.70;;;;;;;11.29;52.74;93806.19;4911540;29;20199;-47
2023/03/08 02:26:21;;;;;;;8.73;5.47;;;;;;;11.27;52.80;93815.81;4966452;28;20276;-48
2023/03/08 02:28:48;;;;;;;7.97;5.17;;;;;;;11.25;52.78;93821.06;4990895;28;20182;-47
2023/03/08 02:31:15;;;;;;;6.30;5.60;;;;;;;11.24;52.79;93822.03;4990788;28;20672;-48
2023/03/08 02:33:42;;;;;;;7.37;5.40;;;;;;;11.21;52.86;93819.78;4990898;28;20201;-51
2023/03/08 02:36:09;;;;;;;7.93;5.40;;;;;;;11.21;52.94;93836.91;4990637;28;20669;-49
2023/03/08 02:38:37;;;;;;;10.10;6.30;;;;;;;11.19;52.92;93823.50;4989803;28;20193;-49
2023/03/08 02:41:05;;;;;;;8.87;5.63;;;;;;;11.18;52.97;93825.25;4990133;28;20197;-48
2023/03/08 02:43:32;;;;;;;6.53;5.33;;;;;;;11.17;52.82;93825.41;4990313;28;20271;-46
2023/03/08 02:45:59;;;;;;;6.83;5.53;;;;;;;11.15;53.04;93827.34;4990682;28;20193;-51
2023/03/08 02:48:26;;;;;;;7.17;6.33;;;;;;;11.14;53.01;93838.53;4990565;28;20186;-46
2023/03/08 02:50:53;;;;;;;10.97;6.37;;;;;;;11.12;53.16;93835.34;4990348;28;20221;-47
2023/03/08 02:53:19;;;;;;;11.00;5.80;;;;;;;11.10;53.01;93842.38;4989913;28;20192;-53
2023/03/08 02:55:46;;;;;;;11.87;6.20;;;;;;;11.09;53.17;93846.69;4970831;28;20284;-54
2023/03/08 02:58:14;;;;;;;10.30;6.63;;;;;;;11.09;53.22;93835.66;4970843;28;20201;-48
2023/03/08 03:00:41;;;;;;;9.43;6.80;;;;;;;11.05;53.27;93838.56;4970616;28;20194;-52
2023/03/08 03:03:08;;;;;;;11.23;5.93;;;;;;;11.04;53.20;93842.06;4970939;28;20193;-48
2023/03/08 03:05:34;;;;;;;9.90;7.07;;;;;;;11.05;53.21;93850.53;4987243;28;20193;-47
2023/03/08 03:08:01;;;;;;;11.77;6.30;;;;;;;11.03;53.34;93839.66;4989843;28;20657;-49
2023/03/08 03:10:28;;;;;;;12.13;7.10;;;;;;;10.99;53.38;93843.50;4989496;28;20229;-49
2023/03/08 03:12:55;;;;;;;12.17;6.90;;;;;;;11.01;53.16;93849.25;4990001;28;20259;-45
2023/03/08 03:15:23;;;;;;;11.97;6.70;;;;;;;10.99;53.35;93839.19;4990103;28;20201;-46
2023/03/08 03:17:50;;;;;;;10.57;6.50;;;;;;;10.99;53.44;93851.97;4990209;28;20193;-48
2023/03/08 03:20:16;;;;;;;9.10;6.60;;;;;;;10.98;53.33;93850.38;4989496;28;20670;-49
2023/03/08 03:22:43;;;;;;;9.03;6.40;;;;;;;10.98;53.44;93847.03;4989746;28;20204;-49
2023/03/08 03:25:10;;;;;;;9.10;6.13;;;;;;;10.96;53.36;93851.50;4970363;28;20194;-47
2023/03/08 03:27:37;;;;;;;9.40;6.77;;;;;;;10.94;53.56;93856.78;4970311;28;20205;-51
2023/03/08 03:30:05;;;;;;;11.50;6.93;;;;;;;10.93;53.39;93864.63;4970297;28;20269;-48
2023/03/08 03:32:33;;;;;;;11.90;6.77;;;;;;;10.92;53.64;93857.88;4970620;28;20201;-53
2023/03/08 03:35:00;;;;;;;14.40;7.27;;;;;;;10.84;53.55;93845.09;4970474;28;20186;-49
2023/03/08 03:37:27;;;;;;;9.77;6.53;;;;;;;10.89;53.69;93868.47;4970154;28;20272;-45
2023/03/08 03:39:53;;;;;;;13.67;7.50;;;;;;;10.88;53.66;93870.22;4989378;28;20251;-48
2023/03/08 03:42:20;;;;;;;12.73;6.53;;;;;;;10.87;53.64;93860.13;4989202;28;20197;-47
2023/03/08 03:44:47;;;;;;;12.00;6.97;;;;;;;10.86;53.75;93864.44;4989601;28;20685;-49
2023/03/08 03:47:15;;;;;;;10.40;6.83;;;;;;;10.84;53.84;93866.38;4989465;28;20193;-46
2023/03/08 03:49:43;;;;;;;11.00;6.77;;;;;;;10.84;53.56;93866.38;4991533;28;20287;-48
2023/03/08 03:52:10;;;;;;;12.63;7.30;;;;;;;10.83;53.79;93874.97;4993418;28;20200;-44
2023/03/08 03:54:36;;;;;;;10.07;6.73;;;;;;;10.81;53.88;93864.13;4993187;28;20232;-46
2023/03/08 03:57:04;;;;;;;8.97;6.00;;;;;;;10.80;54.10;93867.66;4993659;28;20193;-48
2023/03/08 03:59:32;;;;;;;9.53;5.97;;;;;;;10.78;54.02;93867.78;4993761;28;20193;-51
2023/03/08 04:01:59;;;;;;;9.87;6.27;;;;;;;10.78;53.97;93870.34;4993417;28;20189;-49
2023/03/08 04:04:26;;;;;;;10.30;6.93;;;;;;;10.77;54.13;93873.88;4993330;28;20774;-51
2023/03/08 04:06:54;;;;;;;10.00;6.63;;;;;;;10.77;54.04;93875.63;4993110;28;20203;-49
2023/03/08 04:09:21;;;;;;;10.37;6.63;;;;;;;10.73;53.97;93870.03;4993166;28;20196;-47
2023/03/08 04:11:48;;;;;;;8.97;6.03;;;;;;;10.77;54.12;93875.63;4993439;28;20196;-52
2023/03/08 04:14:15;;;;;;;12.13;6.83;;;;;;;10.74;54.25;93875.94;4993111;28;20630;-47
2023/03/08 04:16:41;;;;;;;10.43;6.13;;;;;;;10.73;54.22;93871.78;4992834;28;20244;-53
2023/03/08 04:19:11;;;;;;;11.23;6.70;;;;;;;10.70;54.25;93879.78;4992830;28;20196;-53
2023/03/08 04:21:38;;;;;;;11.07;6.77;;;;;;;10.73;54.08;93884.56;4993605;28;20322;-50
2023/03/08 04:24:07;;;;;;;10.17;6.13;;;;;;;10.72;54.27;93877.88;4992681;28;20193;-50
2023/03/08 04:26:34;;;;;;;7.97;6.03;;;;;;;10.71;54.34;93882.19;4992740;28;20248;-47
2023/03/08 04:29:04;;;;;;;7.37;5.93;;;;;;;10.68;54.42;93879.94;4993152;28;20196;-47
2023/03/08 04:31:33;;;;;;;10.80;6.37;;;;;;;10.70;54.43;93892.56;4993208;28;20621;-48
2023/03/08 04:34:00;;;;;;;7.67;5.57;;;;;;;10.69;54.35;93885.84;4993180;28;20209;-44
2023/03/08 04:36:27;;;;;;;10.93;6.27;;;;;;;10.67;54.32;93886.03;4992545;28;20189;-47
2023/03/08 04:38:54;;;;;;;8.13;6.13;;;;;;;10.69;54.49;93878.19;4992816;28;20189;-47
2023/03/08 04:41:22;;;;;;;8.70;6.43;;;;;;;10.65;54.49;93872.56;4992723;28;20251;-47
2023/03/08 04:43:51;;;;;;;7.83;5.77;;;;;;;10.70;54.49;93878.00;4992661;28;20650;-45
2023/03/08 04:46:20;;;;;;;10.50;5.80;;;;;;;10.71;54.43;93886.50;4992951;28;20197;-49
2023/03/08 04:48:47;;;;;;;8.60;5.53;;;;;;;10.72;54.39;93880.44;4992159;28;20189;-47
2023/03/08 04:51:16;;;;;;;8.23;6.17;;;;;;;10.74;54.50;93881.06;4992539;28;20216;-47
2023/03/08 04:53:44;;;;;;;12.47;6.37;;;;;;;10.75;54.53;93888.59;4992394;28;20200;-48
2023/03/08 04:56:12;;;;;;;9.20;6.23;;;;;;;10.77;54.46;93890.97;4992666;28;20609;-49
2023/03/08 04:58:41;;;;;;;7.37;5.50;;;;;;;10.77;54.48;93889.22;4992316;28;20541;-46
2023/03/08 05:01:10;;;;;;;10.23;5.30;;;;;;;10.79;54.52;93899.28;4991532;28;20189;-45
2023/03/08 05:03:37;;;;;;;12.37;6.23;;;;;;;10.81;54.67;93905.03;4992456;28;20628;-46
2023/03/08 05:06:05;;;;;;;10.43;6.70;;;;;;;10.83;54.84;93910.78;4992006;28;20574;-45
2023/03/08 05:08:31;;;;;;;9.03;6.20;;;;;;;10.87;54.55;93896.72;4992065;28;20197;-49
2023/03/08 05:11:00;;;;;;;14.37;7.00;;;;;;;10.91;54.73;93910.81;4991906;28;20216;-47
2023/03/08 05:13:28;;;;;;;11.33;6.50;;;;;;;10.97;54.53;93920.41;4992571;28;20511;-49
2023/03/08 05:15:57;;;;;;;8.60;6.07;;;;;;;11.09;54.31;93920.88;4992431;28;20185;-46
2023/03/08 05:18:24;;;;;;;12.63;6.53;;;;;;;11.25;54.09;93932.88;4991965;28;20209;-46
2023/03/08 05:20:55;;;;;;;9.50;5.73;;;;;;;11.49;53.68;93929.53;4991525;28;20197;-47
2023/03/08 05:23:22;;;;;;;11.03;7.00;;;;;;;11.75;53.32;93925.00;4991483;28;20256;-51
2023/03/08 05:25:52;;;;;;;9.97;6.50;;;;;;;12.04;53.20;93934.69;4991981;28;20200;-54
2023/03/08 05:28:19;;;;;;;9.33;6.77;;;;;;;12.32;52.78;93936.84;4992350;28;20679;-50
2023/03/08 05:30:45;;;;;;;10.13;7.00;;;;;;;12.55;52.60;93940.25;4990922;28;20283;-48
2023/03/08 05:33:14;;;;;;;8.47;6.03;;;;;;;12.77;52.70;93940.47;4991570;28;20681;-54
2023/03/08 05:35:41;;;;;;;9.90;6.47;;;;;;;12.92;52.22;93953.38;4991258;28;20196;-46
2023/03/08 05:38:07;;;;;;;13.33;7.13;;;;;;;13.01;52.27;93945.44;4991470;28;20197;-54
2023/03/08 05:40:34;;;;;;;11.77;6.07;;;;;;;13.07;52.11;93952.44;4991440;28;20208;-53
2023/03/08 05:43:01;;;;;;;11.17;7.03;;;;;;;13.08;52.15;93958.38;4992088;28;20201;-52
2023/03/08 05:45:28;;;;;;;12.23;7.17;;;;;;;13.08;52.06;93958.38;4992071;28;20201;-56
2023/03/08 05:47:55;;;;;;;11.33;7.37;;;;;;;13.01;52.30;93948.00;4991906;28;20201;-53
2023/03/08 05:50:23;;;;;;;11.07;7.20;;;;;;;13.04;52.16;93960.50;4991791;28;20228;-52
2023/03/08 05:52:50;;;;;;;11.40;6.90;;;;;;;13.01;52.26;93955.72;4991266;28;20188;-50
2023/03/08 05:55:17;;;;;;;11.70;7.33;;;;;;;13.02;52.26;93959.06;4988755;28;20221;-48
2023/03/08 05:57:44;;;;;;;11.03;7.20;;;;;;;13.06;52.02;93963.69;4992159;28;20216;-51
2023/03/08 06:00:12;;;;;;;10.43;7.20;;;;;;;13.13;51.88;93961.25;4992058;28;20283;-55
2023/03/08 06:02:39;;;;;;;11.77;7.37;;;;;;;13.20;51.87;93958.78;4991856;28;20201;-49
2023/03/08 06:05:06;;;;;;;13.23;7.37;;;;;;;13.45;51.81;93967.13;4991298;28;20193;-48
2023/03/08 06:07:34;;;;;;;9.47;6.63;;;;;;;13.95;53.43;93973.44;4991307;28;20197;-52
2023/03/08 06:10:01;;;;;;;13.40;5.13;;;;;;;14.98;78.36;93981.09;4992049;28;20642;-50
2023/03/08 06:12:28;;;;;;;25.00;4.13;;;;;;;16.14;74.72;93968.78;4991003;28;20212;-50
2023/03/08 06:14:55;;;;;;;7.67;4.50;;;;;;;17.24;70.97;93974.84;4990698;28;20723;-52
2023/03/08 06:17:22;;;;;;;10.07;4.47;;;;;;;18.24;66.82;93973.84;4991368;28;20189;-51
2023/03/08 06:19:49;;;;;;;11.13;5.30;;;;;;;19.11;62.80;93989.91;4991327;28;20193;-50
2023/03/08 06:22:16;;;;;;;8.50;5.30;;;;;;;19.87;58.71;93988.28;4990194;28;20197;-54
2023/03/08 06:24:48;;;;;;;11.77;6.33;;;;;;;20.56;54.43;93981.28;4987896;28;20643;-46
2023/03/08 06:27:15;;;;;;;9.40;5.50;;;;;;;21.23;48.64;93989.84;4987580;28;20185;-48
2023/03/08 06:29:42;;;;;;;10.83;6.47;;;;;;;21.87;47.50;93987.56;4988330;28;20193;-51
2023/03/08 06:32:09;;;;;;;21.20;7.73;;;;;;;22.44;46.24;93985.22;4985554;28;20648;-53
2023/03/08 06:34:36;;;;;;;12.30;5.67;;;;;;;23.02;45.55;93998.19;4985995;28;20193;-46
2023/03/08 06:37:03;;;;;;;11.13;5.40;;;;;;;23.51;44.83;93997.75;4990064;28;20188;-50
2023/03/08 06:39:30;;;;;;;9.65;5.05;;;;;;;23.98;43.76;93997.50;4989067;28;20196;-52
2023/03/08 06:42:00;;;;;;;11.73;5.15;;;;;;;24.42;43.22;94002.91;4987591;28;20192;-52
2023/03/08 06:44:27;;;;;;;10.68;5.22;;;;;;;24.62;42.53;94002.38;4989297;28;20251;-54
2023/03/08 06:46:54;;;;;;;8.15;5.28;;;;;;;24.98;42.18;94014.88;4987427;28;20185;-50
2023/03/08 06:49:21;;;;;;;8.88;4.80;;;;;;;25.22;41.30;94014.66;4987664;28;20193;-51
2023/03/08 06:51:47;;;;;;;5.88;4.30;;;;;;;25.50;41.29;94017.03;4989111;28;20216;-50
2023/03/08 06:54:16;;;;;;;14.30;5.05;;;;;;;25.79;40.65;94034.38;4985907;28;20201;-48
2023/03/08 06:56:43;;;;;;;8.50;4.53;;;;;;;26.04;39.95;94026.75;4991880;28;20193;-48
2023/03/08 06:59:12;;;;;;;7.03;4.45;;;;;;;26.31;39.49;94039.00;4989366;28;20201;-46
2023/03/08 07:01:39;;;;;;;7.50;4.35;;;;;;;26.55;39.38;94039.44;4988405;28;20200;-45
2023/03/08 07:04:06;;;;;;;7.60;4.57;;;;;;;26.76;39.29;94041.13;4986086;28;20200;-53
2023/03/08 07:06:33;;;;;;;20.48;4.65;;;;;;;26.95;38.76;94044.13;4986703;28;20197;-50
2023/03/08 07:09:00;;;;;;;6.20;3.85;;;;;;;27.11;38.69;94047.63;4985649;28;20200;-49
2023/03/08 07:11:28;;;;;;;5.15;4.18;;;;;;;27.31;38.99;94055.59;4988438;28;20225;-46
2023/03/08 07:13:55;;;;;;;8.15;4.32;;;;;;;27.52;38.76;94051.19;4989064;28;20215;-47
2023/03/08 07:16:23;;;;;;;8.30;4.13;;;;;;;27.65;38.64;94061.22;4988084;28;20189;-47
2023/03/08 07:18:50;;;;;;;8.63;4.40;;;;;;;27.52;38.17;94054.63;4988279;28;20181;-44
2023/03/08 07:21:16;;;;;;;7.28;4.22;;;;;;;27.29;38.21;94047.19;4987796;28;20661;-52
2023/03/08 07:23:43;;;;;;;7.70;4.30;;;;;;;27.01;38.29;94058.84;4988442;28;20870;-53
2023/03/08 07:26:11;;;;;;;9.30;4.50;;;;;;;26.74;37.97;94057.13;4988047;28;20181;-49
2023/03/08 07:28:37;;;;;;;6.85;4.43;;;;;;;26.51;37.58;94054.88;4988991;28;20189;-47
2023/03/08 07:31:04;;;;;;;5.57;4.05;;;;;;;26.33;37.77;94050.00;4988645;28;20700;-48
2023/03/08 07:33:33;;;;;;;5.45;4.10;;;;;;;26.41;37.85;94058.19;4988128;28;20192;-45
2023/03/08 07:36:01;;;;;;;6.03;3.55;;;;;;;26.43;37.45;94056.13;4988703;28;20200;-46
2023/03/08 07:38:28;;;;;;;5.50;3.92;;;;;;;26.33;37.38;94050.00;4988565;28;20205;-54
2023/03/08 07:40:55;;;;;;;7.45;4.30;;;;;;;26.36;37.48;94052.91;4988731;28;20200;-54
2023/03/08 07:43:23;;;;;;;5.68;4.15;;;;;;;26.46;37.63;94047.75;4988023;28;20287;-47
2023/03/08 07:45:49;;;;;;;5.63;4.03;;;;;;;26.47;37.57;94053.81;4988300;28;20220;-49
2023/03/08 07:48:16;;;;;;;5.25;3.70;;;;;;;26.49;37.80;94055.13;4987480;28;20204;-49
2023/03/08 07:50:44;;;;;;;5.10;4.15;;;;;;;26.44;37.11;94049.06;4988864;28;20197;-49
2023/03/08 07:53:11;;;;;;;8.85;4.40;;;;;;;26.36;37.55;94055.53;4988245;28;20220;-50
2023/03/08 07:55:38;;;;;;;7.30;4.10;;;;;;;26.25;37.45;94052.06;4988121;28;20302;-48
2023/03/08 07:58:05;;;;;;;8.65;4.03;;;;;;;26.16;36.95;94064.03;4987937;28;20195;-48
2023/03/08 08:00:31;;;;;;;6.68;3.97;;;;;;;26.03;36.87;94059.19;4985531;28;20188;-50
2023/03/08 08:02:58;;;;;;;4.65;4.03;;;;;;;25.87;37.09;94060.13;4988260;28;20189;-47
2023/03/08 08:05:25;;;;;;;6.45;3.80;;;;;;;25.68;37.41;94060.41;4988412;28;20193;-45
2023/03/08 08:07:54;;;;;;;5.68;3.45;;;;;;;25.47;37.93;94061.25;4988129;28;20189;-50
2023/03/08 08:10:21;;;;;;;3.92;3.50;;;;;;;25.32;38.50;94055.84;4988097;28;20193;-46
2023/03/08 08:12:47;;;;;;;4.35;3.95;;;;;;;25.23;38.87;94060.72;4988194;28;20232;-47
2023/03/08 08:15:16;;;;;;;5.22;4.03;;;;;;;25.17;39.00;94059.88;4988562;28;20856;-46
2023/03/08 08:17:43;;;;;;;5.82;3.55;;;;;;;25.05;39.37;94059.19;4988356;28;20632;-45
2023/03/08 08:20:11;;;;;;;7.28;3.75;;;;;;;24.97;39.24;94062.22;4987647;28;20670;-45
2023/03/08 08:22:38;;;;;;;5.80;3.80;;;;;;;24.93;40.04;94072.38;4988831;28;20470;-48
2023/03/08 08:25:07;;;;;;;7.32;3.22;;;;;;;24.81;39.85;94065.66;4987538;28;20201;-45
2023/03/08 08:27:35;;;;;;;7.15;3.58;;;;;;;24.71;40.35;94068.94;4988183;28;20189;-48
2023/03/08 08:30:03;;;;;;;5.45;3.70;;;;;;;24.70;40.60;94070.75;4988113;28;20197;-51
2023/03/08 08:32:29;;;;;;;11.10;3.97;;;;;;;24.86;39.66;94073.56;4988463;28;20767;-52
2023/03/08 08:34:56;;;;;;;7.47;3.92;;;;;;;25.04;39.10;94073.28;4988205;28;20263;-48
2023/03/08 08:37:23;;;;;;;8.82;3.72;;;;;;;25.22;38.85;94065.19;4990522;28;20197;-49
2023/03/08 08:39:50;;;;;;;6.53;3.85;;;;;;;25.37;39.00;94067.16;4990798;28;20204;-48
2023/03/08 08:42:18;;;;;;;7.03;4.05;;;;;;;25.49;37.83;94069.66;4991718;28;20582;-46
2023/03/08 08:44:45;;;;;;;5.00;3.83;;;;;;;25.48;37.63;94068.88;4991877;28;20182;-53
2023/03/08 08:47:11;;;;;;;3.92;3.53;;;;;;;25.36;38.17;94062.97;4991460;28;20224;-50
2023/03/08 08:49:38;;;;;;;7.75;3.95;;;;;;;25.31;38.38;94062.91;4991761;28;20212;-46
2023/03/08 08:52:05;;;;;;;4.75;3.40;;;;;;;25.31;38.72;94062.13;4990121;28;20201;-52
2023/03/08 08:54:33;;;;;;;5.75;3.88;;;;;;;25.26;38.81;94061.03;4991578;28;20227;-53
2023/03/08 08:56:59;;;;;;;5.93;3.72;;;;;;;25.19;38.96;94059.63;4991462;28;20231;-52
2023/03/08 08:59:27;;;;;;;5.60;3.55;;;;;;;25.11;39.81;94071.31;4991700;28;20688;-51
2023/03/08 09:01:54;;;;;;;6.32;3.53;;;;;;;25.05;39.44;94072.25;4988715;28;20193;-53
2023/03/08 09:04:21;;;;;;;4.35;3.15;;;;;;;24.97;40.06;94068.22;4991884;28;20193;-50
2023/03/08 09:06:48;;;;;;;3.67;3.28;;;;;;;24.73;40.21;94049.31;4991517;28;20243;-54
2023/03/08 09:09:16;;;;;;;7.32;3.00;;;;;;;24.68;40.55;94053.72;4991406;28;20240;-51
2023/03/08 09:11:42;;;;;;;4.22;3.20;;;;;;;24.65;40.64;94070.66;4990947;28;20239;-46
2023/03/08 09:14:09;;;;;;;3.58;3.00;;;;;;;24.55;40.94;94065.28;4991560;28;20608;-55
2023/03/08 09:16:38;;;;;;;3.42;3.10;;;;;;;24.49;40.92;94066.25;4991369;28;20712;-52
2023/03/08 09:19:05;;;;;;;5.97;3.55;;;;;;;24.43;41.10;94060.16;4991350;28;20201;-53
2023/03/08 09:21:32;;;;;;;5.85;3.65;;;;;;;24.35;41.35;94062.34;4988128;28;20205;-53
2023/03/08 09:24:01;;;;;;;4.72;3.47;;;;;;;24.29;41.59;94061.47;4991035;28;20196;-52
2023/03/08 09:26:30;;;;;;;5.88;3.60;;;;;;;24.26;41.47;94061.94;4988654;28;20274;-54
2023/03/08 09:28:58;;;;;;;6.85;3.60;;;;;;;24.26;41.76;94054.91;4990812;28;20189;-48
2023/03/08 09:31:25;;;;;;;3.80;3.45;;;;;;;24.34;41.83;94047.69;4991336;28;20232;-55
2023/03/08 09:33:53;;;;;;;3.78;3.40;;;;;;;24.42;41.72;94055.16;4990460;28;20596;-52
2023/03/08 09:36:20;;;;;;;6.25;3.33;;;;;;;24.49;41.70;94048.75;4989964;28;20213;-46
2023/03/08 09:38:48;;;;;;;5.20;3.58;;;;;;;24.53;41.63;94047.25;4989569;28;20200;-53
2023/03/08 09:41:49;;;;;;;8.75;3.88;;;;;;;24.60;41.34;94039.22;4989670;28;20193;-50
2023/03/08 09:44:31;;;;;;;4.70;3.42;;;;;;;24.70;41.14;94042.00;4987625;28;20188;-51
2023/03/08 09:47:02;;;;;;;5.18;3.85;;;;;;;24.78;41.18;94038.16;4991269;28;20605;-52
2023/03/08 09:49:33;;;;;;;4.47;3.60;;;;;;;24.82;41.01;94044.47;4990783;28;20193;-50
2023/03/08 09:52:07;;;;;;;5.00;3.45;;;;;;;24.83;40.73;94025.16;4989627;28;20223;-54
2023/03/08 09:54:37;;;;;;;4.93;3.92;;;;;;;24.85;40.98;94033.53;4988867;28;20681;-44
2023/03/08 09:57:10;;;;;;;7.45;3.65;;;;;;;24.81;41.09;94021.19;4989874;28;20193;-47
2023/03/08 09:59:42;;;;;;;10.30;4.10;;;;;;;24.74;40.71;94018.75;4990481;28;20300;-48
2023/03/08 10:02:21;;;;;;;3.88;3.30;;;;;;;24.67;40.98;94020.75;4990306;28;20689;-47
2023/03/08 10:05:00;;;;;;;5.07;3.50;;;;;;;24.59;41.15;94021.16;4988225;28;20188;-48
2023/03/08 10:07:36;;;;;;;4.18;3.35;;;;;;;24.54;41.42;94027.13;4990996;28;20192;-46
2023/03/08 10:10:15;;;;;;;3.97;3.47;;;;;;;24.46;41.55;94023.06;4990066;28;20204;-57
2023/03/08 10:12:54;;;;;;;5.13;3.15;;;;;;;24.44;41.52;94016.53;4991196;28;20236;-50
2023/03/08 10:15:23;;;;;;;5.75;3.25;;;;;;;24.38;41.85;94007.81;4989062;28;20196;-45
2023/03/08 10:17:55;;;;;;;3.67;3.10;;;;;;;24.40;41.91;94013.59;4990218;28;20201;-47
2023/03/08 10:20:26;;;;;;;7.82;4.18;;;;;;;24.35;41.93;94007.44;4989707;28;20193;-51
2023/03/08 10:22:57;;;;;;;5.47;3.92;;;;;;;24.30;41.75;94005.56;4990008;28;20197;-46
2023/03/08 10:25:27;;;;;;;5.50;4.00;;;;;;;24.29;41.51;93998.75;4986173;28;20197;-51
2023/03/08 10:27:56;;;;;;;4.72;3.53;;;;;;;24.40;41.33;94008.38;4989690;28;20197;-47
2023/03/08 10:30:25;;;;;;;7.28;3.63;;;;;;;24.42;41.36;94008.91;4989728;28;20193;-49
2023/03/08 10:32:57;;;;;;;5.03;4.18;;;;;;;24.38;41.12;94002.56;4989868;28;20209;-52
2023/03/08 10:35:35;;;;;;;4.50;3.20;;;;;;;24.31;41.43;94001.13;4989671;28;20262;-46
2023/03/08 10:38:02;;;;;;;5.28;4.13;;;;;;;24.27;41.59;94000.84;4989747;28;20224;-47
2023/03/08 10:40:29;;;;;;;4.10;3.70;;;;;;;24.25;41.64;94005.50;4989567;28;20680;-46
2023/03/08 10:43:00;;;;;;;5.70;3.58;;;;;;;24.24;41.49;93996.06;4989633;28;20669;-49
2023/03/08 10:45:28;;;;;;;5.10;3.17;;;;;;;24.25;41.41;93995.81;4989750;28;20197;-56
2023/03/08 10:47:57;;;;;;;3.80;3.25;;;;;;;24.26;41.51;93996.63;4989625;28;20201;-49
2023/03/08 10:50:26;;;;;;;4.55;3.00;;;;;;;24.25;41.07;93985.38;4989726;28;20193;-53
2023/03/08 10:52:54;;;;;;;6.40;3.25;;;;;;;24.26;40.84;93980.94;4989569;28;20611;-55
2023/03/08 10:55:22;;;;;;;2.65;2.45;;;;;;;24.28;40.88;93987.50;4989069;28;20303;-50
2023/03/08 10:57:52;;;;;;;4.00;2.50;;;;;;;24.27;40.80;93985.94;4989420;28;20204;-52
2023/03/08 11:00:32;;;;;;;3.70;2.70;;;;;;;24.24;40.96;93975.97;4988632;28;20276;-54
2023/03/08 11:03:12;;;;;;;4.25;2.30;;;;;;;24.21;40.85;93968.59;4989901;28;20245;-52
2023/03/08 11:05:39;;;;;;;3.35;2.40;;;;;;;24.19;40.45;93975.09;4989073;28;20197;-49
2023/03/08 11:08:18;;;;;;;3.15;2.20;;;;;;;24.14;40.53;93972.44;4989628;28;20200;-51
2023/03/08 11:10:45;;;;;;;2.05;1.90;;;;;;;24.13;40.65;93969.00;4987058;28;20997;-51
2023/03/08 11:13:21;;;;;;;2.22;2.03;;;;;;;24.10;40.34;93959.03;4989530;28;20233;-51
2023/03/08 11:15:54;;;;;;;2.70;1.98;;;;;;;24.08;40.76;93960.28;4989174;28;20279;-54
2023/03/08 11:18:29;;;;;;;2.80;2.58;;;;;;;24.09;40.49;93952.22;4986911;28;20624;-51
2023/03/08 11:21:02;;;;;;;4.70;2.03;;;;;;;24.12;40.60;93946.53;4989012;28;20197;-54
2023/03/08 11:23:35;;;;;;;2.50;2.00;;;;;;;24.10;40.81;93943.38;4989895;28;20233;-52
2023/03/08 11:26:11;;;;;;;2.05;1.85;;;;;;;24.06;40.43;93937.03;4989014;28;20259;-51
2023/03/08 11:28:51;;;;;;;2.78;2.08;;;;;;;23.96;40.87;93915.97;4987836;28;20208;-49
2023/03/08 11:31:28;;;;;;;4.03;2.40;;;;;;;23.92;40.63;93918.31;4989384;28;20215;-46
2023/03/08 11:34:18;;;;;;;4.18;2.10;;;;;;;23.82;40.84;93922.56;4988453;28;20228;-48
2023/03/08 11:36:50;;;;;;;2.28;2.08;;;;;;;23.77;40.88;93924.06;4988340;28;20205;-44